YAYE/AYQ METAR and TAF weather

Enter ICAO airport designator
Station Type Date Time Source
YAYE METAR 2020/08/15 10:00 UTC NOAA

YAYE 151000Z AUTO 00000KT 9999 // NCD 17/M02 Q1017


Station Type Date Time Source
YAYE Decoded METAR 2020/08/15 10:00 UTC NOAA

Ayers Rock, Australia (YAYE) 25-11S 130-58E
Aug 15, 2020 - 06:00 AM EDT / 2020.08.15 1000 UTC
Wind: Calm:0
Visibility: greater than 7 mile(s):0
Temperature: 62 F (17 C)
Dew Point: 28 F (-2 C)
Relative Humidity: 27%
Pressure (altimeter): 30.03 in. Hg (1017 hPa)
ob: YAYE 151000Z AUTO 00000KT 9999 // NCD 17/M02 Q1017
cycle: 10

Station Type Date Time Source
YAYE TAF UTC NOAA

Error!

Example: see airport list